Time;durP1;ratioP1;P1;durP2;ratioP2;P2;SDS_P1;SDS_P2;PMS_P1;PMS_P2;Temp;Humidity;BMP_temperature;BMP_pressure;BME280_temperature;BME280_humidity;BME280_pressure;Samples;Min_cycle;Max_cycle;Signal;HPM_P1;HPM_P2
2022/10/10 00:00:37;;;;;;;27.10;25.20;;;;;;;17.42;70.14;101747.19;5014305;28;102325;-50
2022/10/10 00:03:06;;;;;;;26.48;24.65;;;;;;;17.43;70.36;101742.50;5007409;28;104982;-49
2022/10/10 00:05:34;;;;;;;;;;;;;;;17.43;70.05;101743.31;4996579;28;108482;-50
2022/10/10 00:08:04;;;;;;;22.63;21.05;;;;;;;17.42;70.27;101741.66;5009811;28;102319;-50
2022/10/10 00:10:32;;;;;;;24.77;23.15;;;;;;;17.43;70.45;101742.50;5017403;28;102167;-49
2022/10/10 00:13:02;;;;;;;27.38;25.27;;;;;;;17.42;70.61;101736.16;5015877;28;102369;-49
2022/10/10 00:15:29;;;;;;;26.27;24.38;;;;;;;17.43;70.69;101742.50;5006568;28;103917;-50
2022/10/10 00:17:57;;;;;;;25.70;24.00;;;;;;;17.42;70.51;101741.66;5010181;28;102189;-49
2022/10/10 00:20:23;;;;;;;25.02;23.23;;;;;;;17.42;70.85;101755.44;5016662;28;102042;-50
2022/10/10 00:22:50;;;;;;;26.08;24.35;;;;;;;17.42;70.23;101747.19;5017974;28;102250;-50
2022/10/10 00:25:18;;;;;;;26.33;24.63;;;;;;;17.43;70.72;101759.00;4996679;28;104365;-50
2022/10/10 00:27:44;;;;;;;31.55;29.48;;;;;;;17.42;70.39;101755.44;5009165;27;102415;-50
2022/10/10 00:30:13;;;;;;;26.25;24.38;;;;;;;17.42;70.55;101766.44;4996641;28;102372;-49
2022/10/10 00:32:41;;;;;;;30.27;28.30;;;;;;;17.42;70.72;101755.44;5014542;28;102168;-50
2022/10/10 00:35:10;;;;;;;27.00;25.25;;;;;;;17.41;70.43;101753.78;5004353;28;103885;-49
2022/10/10 00:37:36;;;;;;;26.55;24.75;;;;;;;17.42;70.32;101760.13;5009366;28;102315;-49
2022/10/10 00:40:04;;;;;;;28.90;26.95;;;;;;;17.41;70.88;101759.28;5010632;28;102267;-49
2022/10/10 00:42:31;;;;;;;28.60;26.75;;;;;;;17.40;70.42;101757.66;5005923;28;102301;-49
2022/10/10 00:45:21;;;;;;;26.27;24.60;;;;;;;17.41;70.47;101767.53;5016026;28;103931;-49
2022/10/10 00:47:48;;;;;;;26.40;24.63;;;;;;;17.40;70.33;101757.66;4996532;28;102414;-49
2022/10/10 00:50:19;;;;;;;25.58;23.77;;;;;;;17.40;70.73;101765.91;5001212;28;102325;-49
2022/10/10 00:52:46;;;;;;;25.05;23.33;;;;;;;17.40;70.83;101771.41;5017057;28;102513;-49
2022/10/10 00:55:14;;;;;;;27.33;25.40;;;;;;;17.41;70.96;101772.22;5016108;28;104142;-49
2022/10/10 00:57:41;;;;;;;28.63;26.83;;;;;;;17.40;70.92;101779.66;5014878;28;102625;-49
2022/10/10 01:00:08;;;;;;;24.20;22.50;;;;;;;17.40;70.85;101771.41;5015158;28;102517;-50
2022/10/10 01:02:36;;;;;;;27.27;25.48;;;;;;;17.42;70.67;101784.88;5014896;28;102193;-50
2022/10/10 01:05:03;;;;;;;25.98;24.27;;;;;;;17.40;70.86;101778.84;5015118;28;103923;-49
2022/10/10 01:07:32;;;;;;;25.20;23.50;;;;;;;17.41;70.51;101786.78;5013835;28;102681;-49
2022/10/10 01:10:04;;;;;;;26.05;24.38;;;;;;;17.40;70.49;101782.41;5015048;28;102782;-49
2022/10/10 01:12:44;;;;;;;27.48;25.67;;;;;;;17.40;71.03;101781.59;5016644;28;102227;-50
2022/10/10 01:15:22;;;;;;;25.60;23.98;;;;;;;17.40;70.96;101778.84;5015500;28;103867;-49
2022/10/10 01:17:56;;;;;;;24.25;22.48;;;;;;;17.40;70.87;101787.09;5014515;28;102321;-50
2022/10/10 01:20:41;;;;;;;26.25;24.45;;;;;;;17.40;71.12;101795.34;4998698;28;102103;-49
2022/10/10 01:23:37;;;;;;;24.25;22.63;;;;;;;17.40;70.94;101798.91;5009344;28;102212;-49
2022/10/10 01:26:20;;;;;;;23.00;21.52;;;;;;;17.40;71.14;101804.41;4994360;28;103972;-50
2022/10/10 01:28:52;;;;;;;22.05;20.58;;;;;;;17.39;71.03;101805.53;4996474;28;102302;-49
2022/10/10 01:31:23;;;;;;;26.27;24.52;;;;;;;17.40;70.74;101809.09;4998306;28;102426;-49
2022/10/10 01:34:06;;;;;;;25.05;23.48;;;;;;;17.39;70.87;101813.78;5015958;28;102469;-49
2022/10/10 01:36:39;;;;;;;26.08;24.50;;;;;;;17.40;71.04;101809.94;5013679;28;103911;-49
2022/10/10 01:39:12;;;;;;;23.75;22.15;;;;;;;17.39;70.64;101816.53;5016036;28;102130;-49
2022/10/10 01:41:45;;;;;;;23.85;22.20;;;;;;;17.39;70.94;101802.78;5013036;28;101971;-49
2022/10/10 01:44:14;;;;;;;25.15;23.48;;;;;;;17.41;71.03;101810.75;5016865;28;102125;-49
2022/10/10 01:46:41;;;;;;;;;;;;;;;17.40;70.71;101807.19;5014737;28;104123;-49
2022/10/10 01:49:08;;;;;;;18.65;17.40;;;;;;;17.39;70.94;101811.03;5015561;28;102395;-49
2022/10/10 01:51:52;;;;;;;24.98;23.23;;;;;;;17.39;70.78;101808.28;5012706;28;102305;-49
2022/10/10 01:54:33;;;;;;;23.85;22.23;;;;;;;17.38;71.16;101812.16;5012776;28;102536;-49
2022/10/10 01:57:12;;;;;;;22.73;21.27;;;;;;;17.38;70.89;101812.16;4998225;28;103941;-49
2022/10/10 01:59:52;;;;;;;23.98;22.42;;;;;;;17.39;71.03;101811.03;5010786;28;102174;-49
2022/10/10 02:02:28;;;;;;;21.15;19.67;;;;;;;17.38;70.88;101812.16;5009510;28;102346;-49
2022/10/10 02:04:59;;;;;;;23.50;21.92;;;;;;;17.39;70.98;101822.06;4995751;28;102792;-49
2022/10/10 02:07:31;;;;;;;23.50;21.98;;;;;;;17.40;70.87;101828.38;5002377;28;104079;-49
2022/10/10 02:10:02;;;;;;;25.60;23.90;;;;;;;17.39;71.18;101827.56;5004792;28;102274;-49
2022/10/10 02:12:30;;;;;;;25.17;23.60;;;;;;;17.39;71.39;101830.31;5007915;28;102474;-49
2022/10/10 02:15:05;;;;;;;23.17;21.73;;;;;;;17.39;71.42;101830.31;5014390;28;102465;-49
2022/10/10 02:17:36;;;;;;;24.23;22.73;;;;;;;17.39;71.17;101833.06;5009003;28;104156;-49
2022/10/10 02:20:06;;;;;;;23.13;21.42;;;;;;;17.38;71.22;101834.19;4994554;28;102388;-49
2022/10/10 02:22:34;;;;;;;22.75;21.25;;;;;;;17.38;71.37;101839.69;5008478;28;103961;-49
2022/10/10 02:25:01;;;;;;;25.63;23.92;;;;;;;17.40;71.47;101837.44;4995621;28;102302;-49
2022/10/10 02:27:36;;;;;;;24.27;22.40;;;;;;;17.39;71.31;101835.81;4995176;28;103879;-49
2022/10/10 02:30:05;;;;;;;24.15;22.65;;;;;;;17.39;71.15;101844.06;5009211;28;102021;-49
2022/10/10 02:32:37;;;;;;;24.00;22.52;;;;;;;17.38;70.84;101842.44;5013702;28;102492;-52
2022/10/10 02:35:08;;;;;;;27.48;25.67;;;;;;;17.39;71.07;101843.25;5014734;28;102437;-49
2022/10/10 02:37:38;;;;;;;24.02;22.48;;;;;;;17.38;71.37;101842.44;5010304;28;105050;-50
2022/10/10 02:40:11;;;;;;;25.08;23.40;;;;;;;17.39;71.06;101857.81;5006376;28;102017;-50
2022/10/10 02:42:39;;;;;;;27.33;25.45;;;;;;;17.39;70.93;101851.50;5013750;28;101955;-50
2022/10/10 02:45:07;;;;;;;24.40;22.83;;;;;;;17.39;71.20;101854.25;5010144;28;102279;-50
2022/10/10 02:47:34;;;;;;;25.55;23.95;;;;;;;17.38;71.09;101844.34;5003003;28;104032;-49
2022/10/10 02:50:01;;;;;;;26.05;24.38;;;;;;;17.38;71.09;101850.69;5001707;28;104292;-49
2022/10/10 02:52:27;;;;;;;24.80;23.20;;;;;;;17.39;71.29;101854.25;5013629;28;102146;-49
2022/10/10 02:54:54;;;;;;;23.25;21.92;;;;;;;17.38;71.58;101855.34;5015889;28;102266;-50
2022/10/10 02:57:20;;;;;;;26.33;24.50;;;;;;;17.38;71.20;101858.94;5011620;28;104210;-49
2022/10/10 02:59:47;;;;;;;26.73;25.02;;;;;;;17.39;71.06;101859.75;5009641;28;102581;-49
2022/10/10 03:02:15;;;;;;;20.73;19.42;;;;;;;17.38;71.45;101867.19;5010727;28;102507;-50
2022/10/10 03:04:42;;;;;;;20.20;18.80;;;;;;;17.39;71.52;101877.09;5012063;28;102801;-49
2022/10/10 03:07:08;;;;;;;18.98;17.73;;;;;;;17.38;71.16;101869.94;5001608;28;104333;-49
2022/10/10 03:09:37;;;;;;;21.83;20.45;;;;;;;17.38;71.41;101878.22;5012600;28;102308;-50
2022/10/10 03:12:04;;;;;;;22.08;20.70;;;;;;;17.38;71.16;101872.69;5013757;28;102265;-49
2022/10/10 03:14:30;;;;;;;19.92;18.70;;;;;;;17.38;71.23;101877.34;5013497;28;102112;-49
2022/10/10 03:16:57;;;;;;;18.60;17.27;;;;;;;17.38;71.64;101872.69;5011299;28;104581;-49
2022/10/10 03:19:25;;;;;;;22.33;20.83;;;;;;;17.36;71.48;101874.91;5013580;28;102232;-49
2022/10/10 03:21:52;;;;;;;19.53;18.33;;;;;;;17.38;71.41;101877.34;5014333;28;102306;-49
2022/10/10 03:24:18;;;;;;;18.75;17.58;;;;;;;17.37;71.24;101879.28;5011423;28;102172;-49
2022/10/10 03:26:45;;;;;;;21.25;19.73;;;;;;;17.37;71.79;101875.72;5013117;28;103982;-49
2022/10/10 03:29:11;;;;;;;22.27;20.55;;;;;;;17.36;71.47;101880.41;5016653;28;102070;-49
2022/10/10 03:31:38;;;;;;;22.08;20.73;;;;;;;17.37;71.43;101892.22;5015866;28;102136;-49
2022/10/10 03:34:04;;;;;;;21.20;19.80;;;;;;;17.37;71.14;101893.06;5017269;28;102345;-49
2022/10/10 03:36:32;;;;;;;19.77;18.58;;;;;;;17.35;71.72;101889.78;5017120;28;104023;-50
2022/10/10 03:38:59;;;;;;;20.73;19.50;;;;;;;17.35;71.60;101895.28;5017068;28;102167;-49
2022/10/10 03:41:25;;;;;;;20.67;19.38;;;;;;;17.36;71.20;101896.91;5017383;28;102013;-49
2022/10/10 03:43:52;;;;;;;20.33;19.08;;;;;;;17.36;71.53;101896.09;5016996;28;102341;-49
2022/10/10 03:46:18;;;;;;;22.08;20.67;;;;;;;17.36;71.77;101898.84;5016412;28;103828;-49
2022/10/10 03:48:45;;;;;;;21.83;20.52;;;;;;;17.35;71.67;101900.78;5016660;28;102958;-49
2022/10/10 03:51:11;;;;;;;21.05;19.80;;;;;;;17.36;71.55;101904.34;5017044;28;102294;-49
2022/10/10 03:53:39;;;;;;;19.58;18.38;;;;;;;17.36;71.44;101905.19;5017279;28;102299;-49
2022/10/10 03:56:09;;;;;;;20.92;19.58;;;;;;;17.36;71.56;101912.63;5016872;28;104038;-49
2022/10/10 03:58:36;;;;;;;20.63;19.33;;;;;;;17.35;71.82;101916.47;5016001;28;102538;-49
2022/10/10 04:01:03;;;;;;;22.00;20.70;;;;;;;17.36;71.82;101918.13;5016335;28;102330;-49
2022/10/10 04:03:30;;;;;;;22.33;21.05;;;;;;;17.36;71.54;101923.63;5014124;28;102047;-49
2022/10/10 04:05:56;;;;;;;22.45;20.85;;;;;;;17.35;71.64;101925.56;5005969;28;103892;-50
2022/10/10 04:08:24;;;;;;;18.90;17.75;;;;;;;17.35;71.87;101925.56;5004684;28;102433;-50
2022/10/10 04:10:53;;;;;;;21.60;20.33;;;;;;;17.36;71.57;101935.44;5017199;28;102410;-49
2022/10/10 04:13:20;;;;;;;23.40;21.85;;;;;;;17.35;71.77;101936.56;5004559;28;102180;-49
2022/10/10 04:15:49;;;;;;;23.02;21.70;;;;;;;17.35;71.45;101938.50;5012761;28;103836;-50
2022/10/10 04:18:16;;;;;;;20.42;19.20;;;;;;;17.35;71.78;101938.50;5015008;28;102250;-50
2022/10/10 04:20:43;;;;;;;21.10;19.85;;;;;;;17.35;71.75;101939.31;5006502;28;101973;-49
2022/10/10 04:23:09;;;;;;;20.88;19.48;;;;;;;17.35;71.68;101938.50;5010137;28;102530;-50
2022/10/10 04:25:35;;;;;;;20.38;19.20;;;;;;;17.34;71.68;101943.16;5014165;28;104011;-50
2022/10/10 04:28:04;;;;;;;20.48;19.17;;;;;;;17.34;71.82;101940.41;5007581;28;102496;-49
2022/10/10 04:30:33;;;;;;;19.60;18.40;;;;;;;17.34;71.79;101940.41;5015008;28;102557;-49
2022/10/10 04:32:59;;;;;;;;;;;;;;;17.35;72.06;101947.56;5004820;28;102972;-49
2022/10/10 04:35:26;;;;;;;17.27;16.25;;;;;;;17.34;71.40;101948.66;5000549;28;104079;-49
2022/10/10 04:37:52;;;;;;;18.10;16.98;;;;;;;17.35;71.72;101947.56;5017134;28;102040;-49
2022/10/10 04:40:19;;;;;;;19.30;18.10;;;;;;;17.34;71.91;101943.16;5014402;28;102276;-49
2022/10/10 04:42:47;;;;;;;20.35;18.85;;;;;;;17.33;71.42;101952.53;5003572;28;102157;-49
2022/10/10 04:45:15;;;;;;;20.15;18.90;;;;;;;17.34;71.50;101948.66;5001537;28;104022;-49
2022/10/10 04:47:41;;;;;;;20.00;18.90;;;;;;;17.34;71.95;101943.16;5008161;28;102271;-49
2022/10/10 04:50:08;;;;;;;20.23;18.92;;;;;;;17.35;71.89;101944.81;4999985;28;102529;-49
2022/10/10 04:52:35;;;;;;;21.33;20.02;;;;;;;17.35;71.72;101946.75;5001975;28;102189;-49
2022/10/10 04:55:01;;;;;;;19.65;18.45;;;;;;;17.36;71.37;101951.94;5011792;28;104780;-49
2022/10/10 04:57:28;;;;;;;18.75;17.75;;;;;;;17.36;71.85;101951.94;5011243;28;102642;-50
2022/10/10 04:59:55;;;;;;;20.77;19.58;;;;;;;17.37;71.94;101950.84;5004743;28;103547;-49
2022/10/10 05:02:23;;;;;;;19.77;18.67;;;;;;;17.38;71.99;101966.25;5010817;28;102216;-50
2022/10/10 05:04:49;;;;;;;21.45;20.15;;;;;;;17.39;72.83;101961.56;5014965;28;104032;-49
2022/10/10 05:07:16;;;;;;;19.70;18.50;;;;;;;17.41;73.00;101971.16;5009524;28;102038;-50
2022/10/10 05:09:42;;;;;;;19.85;18.65;;;;;;;17.41;72.92;101976.66;4998300;28;102488;-50
2022/10/10 05:12:09;;;;;;;18.05;16.95;;;;;;;17.43;72.88;101974.47;5012510;28;102176;-49
2022/10/10 05:14:35;;;;;;;19.40;18.17;;;;;;;17.43;72.44;101979.16;5008415;28;103834;-50
2022/10/10 05:17:04;;;;;;;18.50;17.45;;;;;;;17.43;72.27;101977.22;4996338;28;102313;-49
2022/10/10 05:19:32;;;;;;;18.20;17.10;;;;;;;17.45;72.72;101971.41;4996709;28;102417;-49
2022/10/10 05:22:00;;;;;;;;;;;;;;;17.45;72.21;101961.22;5002421;28;102751;-49
2022/10/10 05:24:26;;;;;;;15.65;14.65;;;;;;;17.46;72.08;101968.38;4996683;28;104086;-50
2022/10/10 05:26:53;;;;;;;17.83;16.63;;;;;;;17.45;71.80;101972.22;4989675;28;102303;-49
2022/10/10 05:29:19;;;;;;;17.98;16.83;;;;;;;17.46;71.52;101971.16;5009425;28;102519;-49
2022/10/10 05:31:45;;;;;;;18.48;17.38;;;;;;;17.45;71.77;101986.00;5013636;28;102500;-50
2022/10/10 05:34:13;;;;;;;18.08;17.08;;;;;;;17.44;71.45;101987.09;5011381;28;109240;-49
2022/10/10 05:36:42;;;;;;;19.67;18.60;;;;;;;17.44;71.65;101998.13;5013815;28;102156;-50
2022/10/10 05:39:09;;;;;;;19.92;18.77;;;;;;;17.44;71.14;101989.84;5005713;28;102661;-49
2022/10/10 05:41:35;;;;;;;18.45;17.35;;;;;;;17.44;71.02;101983.53;5001289;28;102289;-49
2022/10/10 05:44:02;;;;;;;20.23;19.05;;;;;;;17.44;71.33;101987.09;5005972;28;104466;-49
2022/10/10 05:46:28;;;;;;;18.90;17.70;;;;;;;17.42;71.65;101977.50;5006720;28;102343;-49
2022/10/10 05:48:55;;;;;;;19.95;18.77;;;;;;;17.41;71.37;101990.44;5011164;28;102403;-49
2022/10/10 05:51:21;;;;;;;18.50;17.33;;;;;;;17.41;71.42;101995.94;5006841;28;102593;-49
2022/10/10 05:53:49;;;;;;;21.40;20.17;;;;;;;17.41;71.25;101987.69;5005842;28;103960;-49
2022/10/10 05:56:16;;;;;;;19.27;18.17;;;;;;;17.41;71.24;101997.88;4995536;28;102442;-49
2022/10/10 05:58:43;;;;;;;21.83;20.63;;;;;;;17.42;71.61;101999.53;5002195;28;102019;-49
2022/10/10 06:01:09;;;;;;;20.02;18.92;;;;;;;17.41;71.84;101995.94;5004281;28;102763;-49
2022/10/10 06:03:36;;;;;;;21.88;20.63;;;;;;;17.40;71.17;101994.28;5009535;28;103954;-49
2022/10/10 06:06:03;;;;;;;22.35;21.05;;;;;;;17.40;71.32;101997.03;4998470;28;102389;-48
2022/10/10 06:08:31;;;;;;;20.95;19.63;;;;;;;17.40;71.25;102002.56;5000404;28;101913;-49
2022/10/10 06:11:03;;;;;;;20.77;19.52;;;;;;;17.40;71.58;101996.22;5011676;28;103126;-49
2022/10/10 06:13:29;;;;;;;20.38;19.23;;;;;;;17.38;71.08;101999.28;5005849;28;103991;-49
2022/10/10 06:16:00;;;;;;;19.25;18.05;;;;;;;17.39;71.50;102006.41;5004283;28;101931;-50
2022/10/10 06:18:28;;;;;;;18.80;17.70;;;;;;;17.40;71.40;102005.31;5000456;28;102047;-49
2022/10/10 06:21:00;;;;;;;20.83;19.63;;;;;;;17.39;71.00;102006.41;4995940;28;102778;-49
2022/10/10 06:23:27;;;;;;;19.40;18.30;;;;;;;17.40;70.97;102007.25;5013487;28;104036;-49
2022/10/10 06:25:54;;;;;;;21.02;19.92;;;;;;;17.40;71.28;102001.72;5015015;28;102039;-49
2022/10/10 06:28:23;;;;;;;21.95;20.65;;;;;;;17.38;71.38;102004.78;4995463;28;102352;-49
2022/10/10 06:30:50;;;;;;;20.23;19.05;;;;;;;17.40;71.10;102008.06;5002915;28;102301;-50
2022/10/10 06:33:18;;;;;;;22.70;21.50;;;;;;;17.42;71.05;102007.78;5008462;28;103914;-49
2022/10/10 06:35:46;;;;;;;19.33;18.23;;;;;;;17.41;71.36;102004.19;4999393;28;102051;-49
2022/10/10 06:38:14;;;;;;;19.67;18.57;;;;;;;17.41;71.38;102006.94;5008690;28;102496;-49
2022/10/10 06:40:41;;;;;;;18.87;17.67;;;;;;;17.42;70.75;102007.78;5008883;28;102324;-49
2022/10/10 06:43:11;;;;;;;19.52;18.33;;;;;;;17.41;71.16;102004.19;5013940;28;103928;-49
2022/10/10 06:45:41;;;;;;;19.73;18.65;;;;;;;17.43;70.82;102009.41;5008427;28;101980;-49
2022/10/10 06:48:11;;;;;;;21.27;20.05;;;;;;;17.40;71.08;102008.06;4998495;28;101975;-50
2022/10/10 06:50:39;;;;;;;18.23;17.23;;;;;;;17.42;71.21;102011.34;4995967;28;102208;-50
2022/10/10 06:53:07;;;;;;;19.38;18.33;;;;;;;17.42;71.01;102005.84;5009046;28;103841;-49
2022/10/10 06:55:34;;;;;;;18.75;17.75;;;;;;;17.42;71.39;102005.84;5004666;28;103664;-49
2022/10/10 06:58:01;;;;;;;19.95;18.85;;;;;;;17.43;71.00;102007.50;4998259;28;102431;-50
2022/10/10 07:00:28;;;;;;;21.15;19.92;;;;;;;17.43;70.89;102001.97;5006488;28;102745;-49
2022/10/10 07:02:55;;;;;;;21.25;20.05;;;;;;;17.44;70.64;102009.13;5006616;28;103825;-49
2022/10/10 07:05:22;;;;;;;19.35;18.17;;;;;;;17.44;70.63;102009.13;5018377;28;102189;-50
2022/10/10 07:07:51;;;;;;;20.20;19.05;;;;;;;17.46;71.00;102006.09;5017678;28;102193;-49
2022/10/10 07:10:18;;;;;;;20.13;19.02;;;;;;;17.46;70.93;101997.84;5017078;28;102275;-49
2022/10/10 07:12:45;;;;;;;19.55;18.55;;;;;;;17.45;70.86;101999.75;5006585;28;104212;-49
2022/10/10 07:15:13;;;;;;;22.40;21.17;;;;;;;17.44;71.11;101994.53;5003777;28;102248;-50
2022/10/10 07:17:41;;;;;;;;;;;;;;;17.45;71.17;102005.25;5003318;28;102091;-49
2022/10/10 07:20:11;;;;;;;15.43;14.63;;;;;;;17.45;70.72;101994.25;4999546;28;102204;-50
2022/10/10 07:22:38;;;;;;;18.65;17.65;;;;;;;17.45;71.12;101990.69;5000543;28;103921;-49
2022/10/10 07:25:05;;;;;;;19.88;18.77;;;;;;;17.45;70.97;101999.75;5005992;28;102551;-49
2022/10/10 07:27:34;;;;;;;21.85;20.67;;;;;;;17.46;70.70;101993.16;5009465;28;102030;-49
2022/10/10 07:30:00;;;;;;;19.85;18.65;;;;;;;17.47;70.91;102002.22;5015907;28;102226;-54
2022/10/10 07:32:27;;;;;;;19.85;18.75;;;;;;;17.47;70.52;101997.53;5008362;28;103916;-49
2022/10/10 07:34:55;;;;;;;19.70;18.60;;;;;;;17.48;70.60;101993.69;5006550;28;102580;-49
2022/10/10 07:37:23;;;;;;;19.75;18.67;;;;;;;17.48;70.45;101990.91;5014275;28;102227;-49
2022/10/10 07:39:51;;;;;;;18.23;17.17;;;;;;;17.48;70.68;101993.69;5003959;28;102235;-49
2022/10/10 07:42:17;;;;;;;20.77;19.55;;;;;;;17.49;70.76;101989.84;5005761;28;108041;-50
2022/10/10 07:44:44;;;;;;;20.45;19.35;;;;;;;17.50;70.46;101994.22;5009465;28;102590;-50
2022/10/10 07:47:11;;;;;;;21.10;19.90;;;;;;;17.51;70.92;101986.78;5001598;28;102284;-49
2022/10/10 07:49:38;;;;;;;19.83;18.63;;;;;;;17.50;70.72;101988.72;5014298;28;102431;-50
2022/10/10 07:52:04;;;;;;;18.77;17.77;;;;;;;17.51;70.26;101989.53;4998617;28;103918;-49
2022/10/10 07:54:32;;;;;;;19.10;18.02;;;;;;;17.51;70.83;101984.84;4998210;28;102480;-49
2022/10/10 07:56:59;;;;;;;19.13;18.07;;;;;;;17.53;70.54;101990.09;4999905;28;102810;-49
2022/10/10 07:59:26;;;;;;;19.75;18.35;;;;;;;17.56;70.40;101991.41;5005734;28;102995;-49
2022/10/10 08:01:52;;;;;;;19.58;18.48;;;;;;;17.60;70.84;101984.22;5011982;28;104457;-49
2022/10/10 08:04:19;;;;;;;21.58;19.73;;;;;;;17.65;70.70;101986.94;5016009;28;102324;-50
2022/10/10 08:06:45;;;;;;;21.48;19.25;;;;;;;17.71;71.04;101991.31;5005480;28;102181;-49
2022/10/10 08:09:13;;;;;;;26.58;21.52;;;;;;;17.76;71.11;101985.78;5008441;28;102538;-49
2022/10/10 08:11:41;;;;;;;27.85;22.15;;;;;;;17.77;71.55;101996.50;5011110;28;103931;-48
2022/10/10 08:14:07;;;;;;;23.50;20.33;;;;;;;17.79;71.61;101987.16;5015741;28;102377;-48
2022/10/10 08:16:34;;;;;;;25.10;20.85;;;;;;;17.84;71.88;101985.16;5004705;28;102269;-48
2022/10/10 08:19:00;;;;;;;23.67;21.30;;;;;;;17.83;71.70;101978.00;5007117;28;102606;-48
2022/10/10 08:21:27;;;;;;;28.77;22.90;;;;;;;17.87;71.26;101979.06;5003780;28;103897;-48
2022/10/10 08:23:54;;;;;;;29.70;23.73;;;;;;;17.86;70.92;101982.13;5017475;28;102427;-47
2022/10/10 08:26:21;;;;;;;25.98;23.55;;;;;;;17.87;71.43;101984.56;5016009;28;102806;-48
2022/10/10 08:28:49;;;;;;;22.30;20.50;;;;;;;17.90;70.27;101988.69;5007083;28;102336;-55
2022/10/10 08:31:18;;;;;;;24.95;20.38;;;;;;;17.89;70.58;101987.88;5012033;28;103735;-55
2022/10/10 08:33:45;;;;;;;27.73;22.00;;;;;;;17.89;70.79;101976.84;5014113;28;101997;-55
2022/10/10 08:36:14;;;;;;;27.95;23.35;;;;;;;17.91;70.69;101973.81;5003570;28;102355;-55
2022/10/10 08:38:41;;;;;;;24.60;22.27;;;;;;;17.89;70.52;101979.63;5014076;28;102389;-55
2022/10/10 08:41:10;;;;;;;26.50;24.27;;;;;;;17.93;70.84;101972.41;5013684;28;104129;-56
2022/10/10 08:43:43;;;;;;;25.30;23.48;;;;;;;17.96;70.52;101971.03;5009769;28;102286;-56
2022/10/10 08:46:18;;;;;;;24.35;22.17;;;;;;;17.95;70.27;101972.91;4998546;28;102478;-56
2022/10/10 08:48:45;;;;;;;25.25;23.33;;;;;;;17.94;70.83;101974.03;5007084;28;102427;-55
2022/10/10 08:51:19;;;;;;;24.27;22.40;;;;;;;17.94;70.36;101985.06;5006414;28;103919;-55
2022/10/10 08:53:51;;;;;;;26.02;24.13;;;;;;;17.93;71.25;101983.44;5014619;28;102445;-56
2022/10/10 08:56:30;;;;;;;26.92;24.50;;;;;;;17.94;70.72;101978.72;5015417;28;102129;-56
2022/10/10 08:59:02;;;;;;;27.38;23.42;;;;;;;17.95;70.91;101981.19;5000773;28;102167;-55
2022/10/10 09:01:34;;;;;;;23.88;21.60;;;;;;;17.93;70.62;101983.44;5004252;28;103991;-55
2022/10/10 09:04:02;;;;;;;24.08;21.95;;;;;;;17.96;70.49;101991.13;5007986;28;102441;-55
2022/10/10 09:06:39;;;;;;;;;;;;;;;17.96;70.49;101993.88;4999340;28;101986;-55
2022/10/10 09:09:18;;;;;;;29.55;18.48;;;;;;;17.93;70.44;101983.44;4998705;28;102609;-55
2022/10/10 09:11:55;;;;;;;28.15;20.10;;;;;;;17.93;70.35;101988.94;5010963;28;107873;-56
2022/10/10 09:14:34;;;;;;;47.42;24.63;;;;;;;17.94;71.01;101985.06;5004911;28;102185;-55
2022/10/10 09:17:14;;;;;;;36.30;23.80;;;;;;;17.92;70.50;101987.31;4995683;28;102535;-55
2022/10/10 09:19:57;;;;;;;59.05;25.50;;;;;;;17.93;71.11;101985.38;4999899;28;102472;-56
2022/10/10 09:22:28;;;;;;;37.40;22.90;;;;;;;17.92;70.90;101983.69;5005493;28;103960;-56
2022/10/10 09:25:01;;;;;;;31.63;24.00;;;;;;;17.92;70.99;101987.31;5009096;28;102443;-56
2022/10/10 09:27:34;;;;;;;36.92;22.60;;;;;;;17.92;70.56;101984.53;5009616;28;102172;-57
2022/10/10 09:30:04;;;;;;;35.97;26.20;;;;;;;17.90;70.42;101980.44;5003135;28;102069;-57
2022/10/10 09:32:38;;;;;;;26.02;23.50;;;;;;;17.91;70.06;101979.31;4999436;28;103929;-57
2022/10/10 09:35:15;;;;;;;26.02;21.85;;;;;;;17.90;70.35;101980.44;5002134;28;102282;-57
2022/10/10 09:37:43;;;;;;;29.00;25.17;;;;;;;17.89;70.20;101971.34;5009794;28;102977;-56
2022/10/10 09:40:16;;;;;;;;;;;;;;;17.90;70.40;101966.66;5008028;28;102302;-57
2022/10/10 09:42:43;;;;;;;24.48;19.15;;;;;;;17.90;69.79;101975.75;5008291;28;104089;-57
2022/10/10 09:45:17;;;;;;;28.73;21.10;;;;;;;17.89;70.04;101971.34;4995841;28;102351;-57
2022/10/10 09:47:52;;;;;;;24.85;22.33;;;;;;;17.89;70.41;101960.34;5002228;28;102506;-57
2022/10/10 09:50:19;;;;;;;27.23;23.10;;;;;;;17.87;70.31;101957.03;5001080;28;102237;-57
2022/10/10 09:52:46;;;;;;;31.30;23.58;;;;;;;17.87;70.23;101959.78;5001961;28;103941;-56
2022/10/10 09:55:18;;;;;;;;;;;;;;;17.86;70.02;101960.91;4998959;28;102338;-56
2022/10/10 09:57:46;;;;;;;24.38;20.50;;;;;;;17.86;69.91;101952.66;5008001;28;101944;-57
2022/10/10 10:00:26;;;;;;;24.02;21.67;;;;;;;17.85;70.10;101964.78;5011966;28;102681;-56
2022/10/10 10:03:14;;;;;;;26.27;23.98;;;;;;;17.84;70.33;101963.13;5014991;28;104031;-57
2022/10/10 10:05:44;;;;;;;23.88;21.83;;;;;;;17.85;70.20;101963.94;5003060;28;102234;-57
2022/10/10 10:08:19;;;;;;;24.08;22.17;;;;;;;17.86;70.57;101954.59;5012801;28;102245;-57
2022/10/10 10:10:46;;;;;;;27.00;24.90;;;;;;;17.86;69.97;101954.59;5009198;28;102605;-57
2022/10/10 10:13:14;;;;;;;22.17;20.55;;;;;;;17.83;69.99;101939.47;4995338;28;104117;-57
2022/10/10 10:15:47;;;;;;;26.65;24.55;;;;;;;17.82;70.57;101954.34;5004700;28;102247;-57
2022/10/10 10:18:24;;;;;;;25.02;23.27;;;;;;;17.84;70.19;101945.78;5006123;28;102368;-57
2022/10/10 10:20:52;;;;;;;25.83;24.08;;;;;;;17.83;70.14;101942.22;5009633;28;102305;-57
2022/10/10 10:23:25;;;;;;;25.27;23.10;;;;;;;17.83;70.38;101944.97;4998757;28;104020;-57
2022/10/10 10:25:59;;;;;;;25.50;23.23;;;;;;;17.82;71.04;101948.84;5015075;28;102210;-57
2022/10/10 10:28:26;;;;;;;23.92;22.17;;;;;;;17.82;70.38;101943.34;5000684;28;101910;-56
2022/10/10 10:30:56;;;;;;;24.95;22.80;;;;;;;17.80;70.60;101937.28;5014427;28;102610;-57
2022/10/10 10:33:43;;;;;;;22.92;21.30;;;;;;;17.81;71.05;101943.59;4994627;28;103938;-57
2022/10/10 10:36:24;;;;;;;25.35;23.67;;;;;;;17.82;71.01;101942.50;4995671;28;102206;-57
2022/10/10 10:38:58;;;;;;;24.98;23.15;;;;;;;17.81;70.95;101936.16;5000030;28;102030;-56
2022/10/10 10:41:34;;;;;;;27.75;25.75;;;;;;;17.81;70.53;101941.66;5003370;28;102318;-57
2022/10/10 10:44:24;;;;;;;25.75;23.95;;;;;;;17.79;70.66;101938.41;4993561;28;103946;-57
2022/10/10 10:47:03;;;;;;;23.58;21.60;;;;;;;17.79;71.11;101937.59;5007567;28;102289;-56
2022/10/10 10:49:35;;;;;;;20.88;19.55;;;;;;;17.79;71.15;101937.59;5014753;28;101963;-56
2022/10/10 10:52:29;;;;;;;23.20;21.58;;;;;;;17.79;70.97;101926.56;5006381;28;102287;-57
2022/10/10 10:55:13;;;;;;;21.95;20.27;;;;;;;17.79;70.77;101926.56;4991336;28;104015;-59
2022/10/10 10:57:55;;;;;;;22.38;20.80;;;;;;;17.78;71.47;101931.25;5002248;28;102349;-57
2022/10/10 11:00:22;;;;;;;22.13;20.80;;;;;;;17.80;71.09;101929.03;5013301;28;102057;-57
2022/10/10 11:03:03;;;;;;;24.13;22.45;;;;;;;17.78;71.00;101925.75;5007917;28;102118;-57
2022/10/10 11:05:37;;;;;;;23.42;21.55;;;;;;;17.77;71.35;101930.41;5005612;28;107797;-57
2022/10/10 11:08:24;;;;;;;22.52;20.48;;;;;;;17.78;71.23;101920.25;5007054;28;102417;-57
2022/10/10 11:10:59;;;;;;;23.65;22.05;;;;;;;17.78;71.08;101914.75;4991107;28;102402;-57
2022/10/10 11:13:33;;;;;;;25.00;23.25;;;;;;;17.77;70.89;101922.16;4996027;28;102369;-57
2022/10/10 11:16:09;;;;;;;23.35;21.60;;;;;;;17.76;70.92;101905.94;5008957;28;104238;-57